sensor_id;sensor_type;location;lat;lon;timestamp;P1;durP1;ratioP1;P2;durP2;ratioP2
67162;SDS011;54092;53.088;8.850;2023-11-21T00:01:16;29.73;;;10.40;;
67162;SDS011;54092;53.088;8.850;2023-11-21T00:03:42;31.88;;;10.70;;
67162;SDS011;54092;53.088;8.850;2023-11-21T00:06:08;34.72;;;10.15;;
67162;SDS011;54092;53.088;8.850;2023-11-21T00:08:35;42.83;;;10.13;;
67162;SDS011;54092;53.088;8.850;2023-11-21T00:11:01;38.05;;;10.50;;
67162;SDS011;54092;53.088;8.850;2023-11-21T00:13:26;31.75;;;10.27;;
67162;SDS011;54092;53.088;8.850;2023-11-21T00:15:52;29.55;;;9.98;;
67162;SDS011;54092;53.088;8.850;2023-11-21T00:18:18;41.00;;;11.18;;
67162;SDS011;54092;53.088;8.850;2023-11-21T00:20:44;31.83;;;9.90;;
67162;SDS011;54092;53.088;8.850;2023-11-21T00:23:09;32.97;;;10.93;;
67162;SDS011;54092;53.088;8.850;2023-11-21T00:25:35;37.00;;;9.85;;
67162;SDS011;54092;53.088;8.850;2023-11-21T00:28:00;29.70;;;10.32;;
67162;SDS011;54092;53.088;8.850;2023-11-21T00:30:26;33.35;;;10.07;;
67162;SDS011;54092;53.088;8.850;2023-11-21T00:32:52;32.75;;;11.13;;
67162;SDS011;54092;53.088;8.850;2023-11-21T00:35:18;36.88;;;11.00;;
67162;SDS011;54092;53.088;8.850;2023-11-21T00:37:43;37.25;;;11.13;;
67162;SDS011;54092;53.088;8.850;2023-11-21T00:40:09;29.05;;;10.02;;
67162;SDS011;54092;53.088;8.850;2023-11-21T00:42:35;35.05;;;10.45;;
67162;SDS011;54092;53.088;8.850;2023-11-21T00:45:01;27.42;;;10.10;;
67162;SDS011;54092;53.088;8.850;2023-11-21T00:47:28;31.27;;;11.02;;
67162;SDS011;54092;53.088;8.850;2023-11-21T00:49:53;29.88;;;9.70;;
67162;SDS011;54092;53.088;8.850;2023-11-21T00:52:19;32.55;;;10.80;;
67162;SDS011;54092;53.088;8.850;2023-11-21T00:54:45;33.85;;;9.93;;
67162;SDS011;54092;53.088;8.850;2023-11-21T00:57:13;30.88;;;10.65;;
67162;SDS011;54092;53.088;8.850;2023-11-21T00:59:38;30.88;;;11.30;;
67162;SDS011;54092;53.088;8.850;2023-11-21T01:02:04;34.85;;;11.23;;
67162;SDS011;54092;53.088;8.850;2023-11-21T01:04:30;36.58;;;11.77;;
67162;SDS011;54092;53.088;8.850;2023-11-21T01:06:57;34.60;;;12.25;;
67162;SDS011;54092;53.088;8.850;2023-11-21T01:09:23;38.65;;;11.82;;
67162;SDS011;54092;53.088;8.850;2023-11-21T01:11:49;27.20;;;11.70;;
67162;SDS011;54092;53.088;8.850;2023-11-21T01:14:14;36.10;;;13.25;;
67162;SDS011;54092;53.088;8.850;2023-11-21T01:16:40;40.30;;;12.95;;
67162;SDS011;54092;53.088;8.850;2023-11-21T01:19:05;31.45;;;12.23;;
67162;SDS011;54092;53.088;8.850;2023-11-21T01:21:31;40.28;;;13.63;;
67162;SDS011;54092;53.088;8.850;2023-11-21T01:23:57;35.47;;;12.27;;
67162;SDS011;54092;53.088;8.850;2023-11-21T01:26:22;33.53;;;13.68;;
67162;SDS011;54092;53.088;8.850;2023-11-21T01:28:48;37.20;;;12.68;;
67162;SDS011;54092;53.088;8.850;2023-11-21T01:31:14;46.05;;;13.82;;
67162;SDS011;54092;53.088;8.850;2023-11-21T01:33:40;31.75;;;12.10;;
67162;SDS011;54092;53.088;8.850;2023-11-21T01:36:06;37.28;;;12.45;;
67162;SDS011;54092;53.088;8.850;2023-11-21T01:38:32;30.75;;;12.63;;
67162;SDS011;54092;53.088;8.850;2023-11-21T01:40:57;31.35;;;11.50;;
67162;SDS011;54092;53.088;8.850;2023-11-21T01:43:25;28.60;;;10.15;;
67162;SDS011;54092;53.088;8.850;2023-11-21T01:45:51;26.13;;;9.55;;
67162;SDS011;54092;53.088;8.850;2023-11-21T01:48:17;32.88;;;10.82;;
67162;SDS011;54092;53.088;8.850;2023-11-21T01:50:43;27.73;;;10.32;;
67162;SDS011;54092;53.088;8.850;2023-11-21T01:53:10;27.88;;;10.30;;
67162;SDS011;54092;53.088;8.850;2023-11-21T01:55:38;26.67;;;10.40;;
67162;SDS011;54092;53.088;8.850;2023-11-21T01:58:05;25.45;;;9.40;;
67162;SDS011;54092;53.088;8.850;2023-11-21T02:00:32;27.80;;;10.30;;
67162;SDS011;54092;53.088;8.850;2023-11-21T02:02:58;32.10;;;10.00;;
67162;SDS011;54092;53.088;8.850;2023-11-21T02:05:24;25.67;;;9.65;;
67162;SDS011;54092;53.088;8.850;2023-11-21T02:07:51;25.05;;;9.68;;
67162;SDS011;54092;53.088;8.850;2023-11-21T02:10:17;28.42;;;9.82;;
67162;SDS011;54092;53.088;8.850;2023-11-21T02:12:47;25.98;;;9.85;;
67162;SDS011;54092;53.088;8.850;2023-11-21T02:15:15;29.98;;;10.02;;
67162;SDS011;54092;53.088;8.850;2023-11-21T02:17:48;33.15;;;10.90;;
67162;SDS011;54092;53.088;8.850;2023-11-21T02:20:19;26.13;;;9.88;;
67162;SDS011;54092;53.088;8.850;2023-11-21T02:22:52;29.45;;;10.20;;
67162;SDS011;54092;53.088;8.850;2023-11-21T02:25:23;30.65;;;10.60;;
67162;SDS011;54092;53.088;8.850;2023-11-21T02:27:49;24.45;;;9.52;;
67162;SDS011;54092;53.088;8.850;2023-11-21T02:30:15;25.60;;;10.20;;
67162;SDS011;54092;53.088;8.850;2023-11-21T02:32:41;33.72;;;11.23;;
67162;SDS011;54092;53.088;8.850;2023-11-21T02:35:07;29.27;;;10.85;;
67162;SDS011;54092;53.088;8.850;2023-11-21T02:37:33;28.92;;;9.40;;
67162;SDS011;54092;53.088;8.850;2023-11-21T02:40:00;24.42;;;9.38;;
67162;SDS011;54092;53.088;8.850;2023-11-21T02:42:28;29.17;;;10.38;;
67162;SDS011;54092;53.088;8.850;2023-11-21T02:44:54;24.45;;;9.57;;
67162;SDS011;54092;53.088;8.850;2023-11-21T02:47:19;26.98;;;9.95;;
67162;SDS011;54092;53.088;8.850;2023-11-21T02:49:45;24.17;;;8.90;;
67162;SDS011;54092;53.088;8.850;2023-11-21T02:52:10;26.25;;;8.55;;
67162;SDS011;54092;53.088;8.850;2023-11-21T02:54:36;22.20;;;8.50;;
67162;SDS011;54092;53.088;8.850;2023-11-21T02:57:01;31.98;;;10.40;;
67162;SDS011;54092;53.088;8.850;2023-11-21T02:59:27;25.70;;;8.63;;
67162;SDS011;54092;53.088;8.850;2023-11-21T03:01:53;28.92;;;9.68;;
67162;SDS011;54092;53.088;8.850;2023-11-21T03:04:18;24.95;;;8.43;;
67162;SDS011;54092;53.088;8.850;2023-11-21T03:06:44;28.08;;;9.98;;
67162;SDS011;54092;53.088;8.850;2023-11-21T03:09:10;25.63;;;9.32;;
67162;SDS011;54092;53.088;8.850;2023-11-21T03:11:39;29.48;;;10.18;;
67162;SDS011;54092;53.088;8.850;2023-11-21T03:14:04;32.60;;;10.50;;
67162;SDS011;54092;53.088;8.850;2023-11-21T03:16:31;30.23;;;10.00;;
67162;SDS011;54092;53.088;8.850;2023-11-21T03:18:57;30.42;;;10.73;;
67162;SDS011;54092;53.088;8.850;2023-11-21T03:21:23;31.73;;;11.50;;
67162;SDS011;54092;53.088;8.850;2023-11-21T03:23:49;35.92;;;11.82;;
67162;SDS011;54092;53.088;8.850;2023-11-21T03:26:15;40.47;;;12.40;;
67162;SDS011;54092;53.088;8.850;2023-11-21T03:28:41;45.05;;;12.95;;
67162;SDS011;54092;53.088;8.850;2023-11-21T03:31:07;35.90;;;12.00;;
67162;SDS011;54092;53.088;8.850;2023-11-21T03:33:34;46.67;;;13.10;;
67162;SDS011;54092;53.088;8.850;2023-11-21T03:36:00;46.67;;;13.25;;
67162;SDS011;54092;53.088;8.850;2023-11-21T03:38:25;44.63;;;12.60;;
67162;SDS011;54092;53.088;8.850;2023-11-21T03:40:51;50.42;;;14.70;;
67162;SDS011;54092;53.088;8.850;2023-11-21T03:43:16;38.85;;;12.98;;
67162;SDS011;54092;53.088;8.850;2023-11-21T03:45:42;46.70;;;14.23;;
67162;SDS011;54092;53.088;8.850;2023-11-21T03:48:08;53.70;;;15.52;;
67162;SDS011;54092;53.088;8.850;2023-11-21T03:50:33;52.75;;;15.18;;
67162;SDS011;54092;53.088;8.850;2023-11-21T03:52:59;48.70;;;14.25;;
67162;SDS011;54092;53.088;8.850;2023-11-21T03:55:25;40.22;;;12.77;;
67162;SDS011;54092;53.088;8.850;2023-11-21T03:57:50;47.30;;;14.75;;
67162;SDS011;54092;53.088;8.850;2023-11-21T04:00:17;41.65;;;13.73;;
67162;SDS011;54092;53.088;8.850;2023-11-21T04:02:45;45.78;;;15.05;;
67162;SDS011;54092;53.088;8.850;2023-11-21T04:05:11;40.20;;;14.30;;
67162;SDS011;54092;53.088;8.850;2023-11-21T04:07:37;44.88;;;15.80;;
67162;SDS011;54092;53.088;8.850;2023-11-21T04:10:03;37.33;;;14.32;;
67162;SDS011;54092;53.088;8.850;2023-11-21T04:12:32;43.15;;;15.35;;
67162;SDS011;54092;53.088;8.850;2023-11-21T04:14:57;38.00;;;15.18;;
67162;SDS011;54092;53.088;8.850;2023-11-21T04:17:23;39.58;;;14.82;;
67162;SDS011;54092;53.088;8.850;2023-11-21T04:19:49;38.42;;;16.08;;
67162;SDS011;54092;53.088;8.850;2023-11-21T04:22:14;44.05;;;15.73;;
67162;SDS011;54092;53.088;8.850;2023-11-21T04:24:40;44.17;;;16.02;;
67162;SDS011;54092;53.088;8.850;2023-11-21T04:27:05;40.92;;;15.25;;
67162;SDS011;54092;53.088;8.850;2023-11-21T04:29:31;46.75;;;16.33;;
67162;SDS011;54092;53.088;8.850;2023-11-21T04:31:56;45.50;;;16.45;;
67162;SDS011;54092;53.088;8.850;2023-11-21T04:34:22;40.72;;;15.73;;
67162;SDS011;54092;53.088;8.850;2023-11-21T04:36:47;35.03;;;14.13;;
67162;SDS011;54092;53.088;8.850;2023-11-21T04:39:13;29.55;;;12.93;;
67162;SDS011;54092;53.088;8.850;2023-11-21T04:41:38;26.02;;;10.80;;
67162;SDS011;54092;53.088;8.850;2023-11-21T04:44:05;25.02;;;9.40;;
67162;SDS011;54092;53.088;8.850;2023-11-21T04:46:31;19.92;;;8.38;;
67162;SDS011;54092;53.088;8.850;2023-11-21T04:48:57;20.10;;;8.43;;
67162;SDS011;54092;53.088;8.850;2023-11-21T04:51:23;18.23;;;8.00;;
67162;SDS011;54092;53.088;8.850;2023-11-21T04:53:48;21.05;;;8.02;;
67162;SDS011;54092;53.088;8.850;2023-11-21T04:56:14;18.45;;;7.57;;
67162;SDS011;54092;53.088;8.850;2023-11-21T04:58:41;18.50;;;7.28;;
67162;SDS011;54092;53.088;8.850;2023-11-21T05:01:07;18.13;;;7.97;;
67162;SDS011;54092;53.088;8.850;2023-11-21T05:03:33;19.20;;;8.65;;
67162;SDS011;54092;53.088;8.850;2023-11-21T05:05:59;21.83;;;7.57;;
67162;SDS011;54092;53.088;8.850;2023-11-21T05:08:25;21.27;;;8.50;;
67162;SDS011;54092;53.088;8.850;2023-11-21T05:10:51;21.45;;;8.70;;
67162;SDS011;54092;53.088;8.850;2023-11-21T05:13:17;22.63;;;7.88;;
67162;SDS011;54092;53.088;8.850;2023-11-21T05:15:43;19.27;;;7.35;;
67162;SDS011;54092;53.088;8.850;2023-11-21T05:18:09;16.88;;;7.60;;
67162;SDS011;54092;53.088;8.850;2023-11-21T05:20:35;16.52;;;7.45;;
67162;SDS011;54092;53.088;8.850;2023-11-21T05:23:03;16.23;;;6.90;;
67162;SDS011;54092;53.088;8.850;2023-11-21T05:25:28;17.27;;;7.68;;
67162;SDS011;54092;53.088;8.850;2023-11-21T05:27:54;16.23;;;6.68;;
67162;SDS011;54092;53.088;8.850;2023-11-21T05:30:21;21.17;;;8.68;;
67162;SDS011;54092;53.088;8.850;2023-11-21T05:32:46;15.98;;;7.57;;
67162;SDS011;54092;53.088;8.850;2023-11-21T05:35:12;16.80;;;7.68;;
67162;SDS011;54092;53.088;8.850;2023-11-21T05:37:40;14.75;;;6.93;;
67162;SDS011;54092;53.088;8.850;2023-11-21T05:40:07;15.27;;;7.10;;
67162;SDS011;54092;53.088;8.850;2023-11-21T05:42:33;14.35;;;7.07;;
67162;SDS011;54092;53.088;8.850;2023-11-21T05:44:59;17.10;;;6.78;;
67162;SDS011;54092;53.088;8.850;2023-11-21T05:47:35;15.88;;;6.78;;
67162;SDS011;54092;53.088;8.850;2023-11-21T05:50:09;18.45;;;7.07;;
67162;SDS011;54092;53.088;8.850;2023-11-21T05:52:37;16.55;;;7.18;;
67162;SDS011;54092;53.088;8.850;2023-11-21T05:55:04;15.27;;;6.75;;
67162;SDS011;54092;53.088;8.850;2023-11-21T05:57:32;15.95;;;7.05;;
67162;SDS011;54092;53.088;8.850;2023-11-21T06:00:02;14.70;;;7.03;;
67162;SDS011;54092;53.088;8.850;2023-11-21T06:02:33;12.98;;;7.20;;
67162;SDS011;54092;53.088;8.850;2023-11-21T06:04:59;14.00;;;6.50;;
67162;SDS011;54092;53.088;8.850;2023-11-21T06:07:24;13.13;;;6.43;;
67162;SDS011;54092;53.088;8.850;2023-11-21T06:09:50;13.05;;;6.03;;
67162;SDS011;54092;53.088;8.850;2023-11-21T06:12:16;11.38;;;5.78;;
67162;SDS011;54092;53.088;8.850;2023-11-21T06:14:41;16.05;;;7.32;;
67162;SDS011;54092;53.088;8.850;2023-11-21T06:17:07;13.65;;;6.57;;
67162;SDS011;54092;53.088;8.850;2023-11-21T06:19:32;15.40;;;7.13;;
67162;SDS011;54092;53.088;8.850;2023-11-21T06:21:58;13.40;;;6.35;;
67162;SDS011;54092;53.088;8.850;2023-11-21T06:24:23;14.25;;;6.88;;
67162;SDS011;54092;53.088;8.850;2023-11-21T06:26:49;13.63;;;6.75;;
67162;SDS011;54092;53.088;8.850;2023-11-21T06:29:14;14.50;;;7.15;;
67162;SDS011;54092;53.088;8.850;2023-11-21T06:31:40;17.80;;;7.63;;
67162;SDS011;54092;53.088;8.850;2023-11-21T06:34:05;15.13;;;7.30;;
67162;SDS011;54092;53.088;8.850;2023-11-21T06:36:31;15.60;;;7.55;;
67162;SDS011;54092;53.088;8.850;2023-11-21T06:38:57;17.65;;;7.13;;
67162;SDS011;54092;53.088;8.850;2023-11-21T06:41:22;12.93;;;6.65;;
67162;SDS011;54092;53.088;8.850;2023-11-21T06:43:48;14.73;;;6.90;;
67162;SDS011;54092;53.088;8.850;2023-11-21T06:46:14;15.38;;;7.03;;
67162;SDS011;54092;53.088;8.850;2023-11-21T06:48:41;16.45;;;7.18;;
67162;SDS011;54092;53.088;8.850;2023-11-21T06:51:07;14.65;;;7.30;;
67162;SDS011;54092;53.088;8.850;2023-11-21T06:53:33;12.63;;;6.70;;
67162;SDS011;54092;53.088;8.850;2023-11-21T06:55:59;13.55;;;7.07;;
67162;SDS011;54092;53.088;8.850;2023-11-21T06:58:24;15.40;;;7.20;;
67162;SDS011;54092;53.088;8.850;2023-11-21T07:00:50;15.75;;;7.53;;
67162;SDS011;54092;53.088;8.850;2023-11-21T07:03:17;14.30;;;7.20;;
67162;SDS011;54092;53.088;8.850;2023-11-21T07:05:44;16.63;;;7.72;;
67162;SDS011;54092;53.088;8.850;2023-11-21T07:08:10;16.10;;;7.40;;
67162;SDS011;54092;53.088;8.850;2023-11-21T07:10:35;15.52;;;7.72;;
67162;SDS011;54092;53.088;8.850;2023-11-21T07:13:01;16.40;;;7.28;;
67162;SDS011;54092;53.088;8.850;2023-11-21T07:15:27;19.42;;;8.48;;
67162;SDS011;54092;53.088;8.850;2023-11-21T07:17:53;16.80;;;7.85;;
67162;SDS011;54092;53.088;8.850;2023-11-21T07:20:19;15.52;;;7.15;;
67162;SDS011;54092;53.088;8.850;2023-11-21T07:22:44;16.92;;;7.72;;
67162;SDS011;54092;53.088;8.850;2023-11-21T07:25:10;19.73;;;7.80;;
67162;SDS011;54092;53.088;8.850;2023-11-21T07:27:36;17.20;;;7.57;;
67162;SDS011;54092;53.088;8.850;2023-11-21T07:30:02;14.18;;;7.35;;
67162;SDS011;54092;53.088;8.850;2023-11-21T07:32:32;16.85;;;8.00;;
67162;SDS011;54092;53.088;8.850;2023-11-21T07:34:58;15.40;;;7.35;;
67162;SDS011;54092;53.088;8.850;2023-11-21T07:37:26;14.40;;;7.30;;
67162;SDS011;54092;53.088;8.850;2023-11-21T07:39:53;15.48;;;8.15;;
67162;SDS011;54092;53.088;8.850;2023-11-21T07:42:21;17.02;;;7.40;;
67162;SDS011;54092;53.088;8.850;2023-11-21T07:44:51;18.05;;;8.30;;
67162;SDS011;54092;53.088;8.850;2023-11-21T07:47:17;15.38;;;7.63;;
67162;SDS011;54092;53.088;8.850;2023-11-21T07:49:43;18.17;;;7.55;;
67162;SDS011;54092;53.088;8.850;2023-11-21T07:52:10;16.02;;;7.93;;
67162;SDS011;54092;53.088;8.850;2023-11-21T07:54:35;17.15;;;8.10;;
67162;SDS011;54092;53.088;8.850;2023-11-21T07:57:01;15.35;;;7.50;;
67162;SDS011;54092;53.088;8.850;2023-11-21T07:59:29;17.15;;;8.43;;
67162;SDS011;54092;53.088;8.850;2023-11-21T08:01:54;27.73;;;8.73;;
67162;SDS011;54092;53.088;8.850;2023-11-21T08:04:20;16.60;;;7.60;;
67162;SDS011;54092;53.088;8.850;2023-11-21T08:06:45;18.30;;;8.18;;
67162;SDS011;54092;53.088;8.850;2023-11-21T08:09:11;15.90;;;7.75;;
67162;SDS011;54092;53.088;8.850;2023-11-21T08:11:37;17.58;;;8.73;;
67162;SDS011;54092;53.088;8.850;2023-11-21T08:14:04;19.10;;;7.95;;
67162;SDS011;54092;53.088;8.850;2023-11-21T08:16:30;19.33;;;8.02;;
67162;SDS011;54092;53.088;8.850;2023-11-21T08:18:55;17.23;;;8.15;;
67162;SDS011;54092;53.088;8.850;2023-11-21T08:21:21;16.80;;;7.07;;
67162;SDS011;54092;53.088;8.850;2023-11-21T08:23:49;19.77;;;9.07;;
67162;SDS011;54092;53.088;8.850;2023-11-21T08:26:19;16.98;;;8.30;;
67162;SDS011;54092;53.088;8.850;2023-11-21T08:28:45;14.80;;;7.25;;
67162;SDS011;54092;53.088;8.850;2023-11-21T08:31:12;19.50;;;7.88;;
67162;SDS011;54092;53.088;8.850;2023-11-21T08:33:38;15.40;;;8.00;;
67162;SDS011;54092;53.088;8.850;2023-11-21T08:36:06;15.00;;;7.68;;
67162;SDS011;54092;53.088;8.850;2023-11-21T08:38:33;15.85;;;8.43;;
67162;SDS011;54092;53.088;8.850;2023-11-21T08:41:02;15.57;;;7.97;;
67162;SDS011;54092;53.088;8.850;2023-11-21T08:43:34;15.32;;;7.80;;
67162;SDS011;54092;53.088;8.850;2023-11-21T08:46:00;16.92;;;8.38;;
67162;SDS011;54092;53.088;8.850;2023-11-21T08:48:26;17.45;;;8.43;;
67162;SDS011;54092;53.088;8.850;2023-11-21T08:50:53;16.15;;;7.95;;
67162;SDS011;54092;53.088;8.850;2023-11-21T08:53:19;18.33;;;8.00;;
67162;SDS011;54092;53.088;8.850;2023-11-21T08:55:44;16.85;;;8.35;;
67162;SDS011;54092;53.088;8.850;2023-11-21T08:58:10;16.85;;;7.00;;
67162;SDS011;54092;53.088;8.850;2023-11-21T09:00:37;15.68;;;7.53;;
67162;SDS011;54092;53.088;8.850;2023-11-21T09:03:04;15.52;;;7.43;;
67162;SDS011;54092;53.088;8.850;2023-11-21T09:05:33;17.17;;;8.43;;
67162;SDS011;54092;53.088;8.850;2023-11-21T09:07:59;15.70;;;8.40;;
67162;SDS011;54092;53.088;8.850;2023-11-21T09:10:25;20.40;;;8.65;;
67162;SDS011;54092;53.088;8.850;2023-11-21T09:12:50;14.00;;;7.55;;
67162;SDS011;54092;53.088;8.850;2023-11-21T09:15:17;15.95;;;8.05;;
67162;SDS011;54092;53.088;8.850;2023-11-21T09:17:42;14.07;;;7.85;;
67162;SDS011;54092;53.088;8.850;2023-11-21T09:20:09;15.30;;;7.28;;
67162;SDS011;54092;53.088;8.850;2023-11-21T09:22:35;13.40;;;7.32;;
67162;SDS011;54092;53.088;8.850;2023-11-21T09:25:01;16.98;;;7.40;;
67162;SDS011;54092;53.088;8.850;2023-11-21T09:27:30;13.75;;;7.22;;
67162;SDS011;54092;53.088;8.850;2023-11-21T09:29:56;13.40;;;7.03;;
67162;SDS011;54092;53.088;8.850;2023-11-21T09:32:23;15.55;;;6.88;;
67162;SDS011;54092;53.088;8.850;2023-11-21T09:34:49;15.27;;;7.25;;
67162;SDS011;54092;53.088;8.850;2023-11-21T09:37:15;13.38;;;7.32;;
67162;SDS011;54092;53.088;8.850;2023-11-21T09:39:41;14.15;;;7.22;;
67162;SDS011;54092;53.088;8.850;2023-11-21T09:42:12;14.43;;;7.10;;
67162;SDS011;54092;53.088;8.850;2023-11-21T09:44:49;14.60;;;7.22;;
67162;SDS011;54092;53.088;8.850;2023-11-21T09:47:23;12.85;;;6.72;;
67162;SDS011;54092;53.088;8.850;2023-11-21T09:49:49;13.30;;;7.43;;
67162;SDS011;54092;53.088;8.850;2023-11-21T09:52:18;14.93;;;7.30;;
67162;SDS011;54092;53.088;8.850;2023-11-21T09:54:55;14.05;;;7.20;;
67162;SDS011;54092;53.088;8.850;2023-11-21T09:57:24;13.20;;;7.20;;
67162;SDS011;54092;53.088;8.850;2023-11-21T09:59:53;13.27;;;6.55;;
67162;SDS011;54092;53.088;8.850;2023-11-21T10:02:24;14.75;;;7.22;;
67162;SDS011;54092;53.088;8.850;2023-11-21T10:04:53;14.85;;;7.40;;
67162;SDS011;54092;53.088;8.850;2023-11-21T10:07:19;13.00;;;7.28;;
67162;SDS011;54092;53.088;8.850;2023-11-21T10:09:46;13.18;;;6.82;;
67162;SDS011;54092;53.088;8.850;2023-11-21T10:12:14;14.52;;;7.57;;
67162;SDS011;54092;53.088;8.850;2023-11-21T10:14:41;11.80;;;6.75;;
67162;SDS011;54092;53.088;8.850;2023-11-21T10:17:09;11.77;;;6.97;;
67162;SDS011;54092;53.088;8.850;2023-11-21T10:19:37;13.50;;;6.60;;
67162;SDS011;54092;53.088;8.850;2023-11-21T10:22:04;13.25;;;6.65;;
67162;SDS011;54092;53.088;8.850;2023-11-21T10:24:31;11.48;;;6.53;;
67162;SDS011;54092;53.088;8.850;2023-11-21T10:26:57;13.57;;;7.20;;
67162;SDS011;54092;53.088;8.850;2023-11-21T10:29:23;16.20;;;8.00;;
67162;SDS011;54092;53.088;8.850;2023-11-21T10:31:49;13.43;;;7.00;;
67162;SDS011;54092;53.088;8.850;2023-11-21T10:34:16;14.88;;;7.05;;
67162;SDS011;54092;53.088;8.850;2023-11-21T10:36:43;14.02;;;7.18;;
67162;SDS011;54092;53.088;8.850;2023-11-21T10:39:09;14.30;;;7.30;;
67162;SDS011;54092;53.088;8.850;2023-11-21T10:41:43;14.57;;;6.50;;
67162;SDS011;54092;53.088;8.850;2023-11-21T10:44:10;11.40;;;5.78;;
67162;SDS011;54092;53.088;8.850;2023-11-21T10:46:39;12.68;;;7.10;;
67162;SDS011;54092;53.088;8.850;2023-11-21T10:49:07;12.73;;;6.97;;
67162;SDS011;54092;53.088;8.850;2023-11-21T10:51:34;12.35;;;6.35;;
67162;SDS011;54092;53.088;8.850;2023-11-21T10:54:00;14.02;;;7.30;;
67162;SDS011;54092;53.088;8.850;2023-11-21T10:56:25;12.15;;;6.65;;
67162;SDS011;54092;53.088;8.850;2023-11-21T10:58:52;12.18;;;6.68;;
67162;SDS011;54092;53.088;8.850;2023-11-21T11:01:18;13.57;;;6.55;;
67162;SDS011;54092;53.088;8.850;2023-11-21T11:03:46;13.13;;;7.13;;
67162;SDS011;54092;53.088;8.850;2023-11-21T11:06:12;12.85;;;6.82;;
67162;SDS011;54092;53.088;8.850;2023-11-21T11:08:40;12.52;;;6.10;;
67162;SDS011;54092;53.088;8.850;2023-11-21T11:11:06;12.85;;;6.80;;
67162;SDS011;54092;53.088;8.850;2023-11-21T11:13:32;13.82;;;6.43;;
67162;SDS011;54092;53.088;8.850;2023-11-21T11:15:59;10.80;;;5.85;;
67162;SDS011;54092;53.088;8.850;2023-11-21T11:18:26;11.48;;;6.05;;
67162;SDS011;54092;53.088;8.850;2023-11-21T11:20:57;10.57;;;5.68;;
67162;SDS011;54092;53.088;8.850;2023-11-21T11:23:57;12.70;;;6.28;;
67162;SDS011;54092;53.088;8.850;2023-11-21T11:32:18;12.53;;;5.80;;
67162;SDS011;54092;53.088;8.850;2023-11-21T11:37:41;11.00;;;5.53;;
67162;SDS011;54092;53.088;8.850;2023-11-21T11:40:08;13.45;;;6.10;;
67162;SDS011;54092;53.088;8.850;2023-11-21T11:42:36;12.38;;;5.70;;
67162;SDS011;54092;53.088;8.850;2023-11-21T11:45:02;11.32;;;5.60;;
67162;SDS011;54092;53.088;8.850;2023-11-21T11:47:44;11.43;;;6.13;;
67162;SDS011;54092;53.088;8.850;2023-11-21T11:50:12;11.35;;;5.82;;
67162;SDS011;54092;53.088;8.850;2023-11-21T11:55:14;12.50;;;6.13;;
67162;SDS011;54092;53.088;8.850;2023-11-21T12:02:41;8.52;;;5.07;;
67162;SDS011;54092;53.088;8.850;2023-11-21T12:05:10;9.73;;;5.25;;
67162;SDS011;54092;53.088;8.850;2023-11-21T12:07:44;8.85;;;4.68;;
67162;SDS011;54092;53.088;8.850;2023-11-21T12:10:15;8.57;;;5.32;;
67162;SDS011;54092;53.088;8.850;2023-11-21T12:12:46;9.90;;;4.93;;
67162;SDS011;54092;53.088;8.850;2023-11-21T12:17:38;10.75;;;5.30;;
67162;SDS011;54092;53.088;8.850;2023-11-21T12:20:05;11.07;;;4.80;;
67162;SDS011;54092;53.088;8.850;2023-11-21T12:22:39;9.65;;;4.93;;
67162;SDS011;54092;53.088;8.850;2023-11-21T12:25:06;8.30;;;4.47;;
67162;SDS011;54092;53.088;8.850;2023-11-21T12:27:32;12.07;;;5.03;;
67162;SDS011;54092;53.088;8.850;2023-11-21T12:29:57;7.70;;;4.30;;
67162;SDS011;54092;53.088;8.850;2023-11-21T12:32:23;7.65;;;4.35;;
67162;SDS011;54092;53.088;8.850;2023-11-21T12:34:50;6.53;;;3.83;;
67162;SDS011;54092;53.088;8.850;2023-11-21T12:37:16;8.70;;;4.15;;
67162;SDS011;54092;53.088;8.850;2023-11-21T12:39:42;9.07;;;4.07;;
67162;SDS011;54092;53.088;8.850;2023-11-21T12:42:08;9.32;;;4.40;;
67162;SDS011;54092;53.088;8.850;2023-11-21T12:44:35;9.23;;;4.90;;
67162;SDS011;54092;53.088;8.850;2023-11-21T12:47:02;9.45;;;5.57;;
67162;SDS011;54092;53.088;8.850;2023-11-21T12:49:28;6.93;;;4.00;;
67162;SDS011;54092;53.088;8.850;2023-11-21T12:51:53;9.32;;;4.25;;
67162;SDS011;54092;53.088;8.850;2023-11-21T12:54:19;7.15;;;3.85;;
67162;SDS011;54092;53.088;8.850;2023-11-21T12:56:45;7.22;;;3.90;;
67162;SDS011;54092;53.088;8.850;2023-11-21T12:59:14;9.15;;;3.83;;
67162;SDS011;54092;53.088;8.850;2023-11-21T13:01:42;7.65;;;4.10;;
67162;SDS011;54092;53.088;8.850;2023-11-21T13:04:08;8.57;;;4.38;;
67162;SDS011;54092;53.088;8.850;2023-11-21T13:06:36;7.60;;;3.75;;
67162;SDS011;54092;53.088;8.850;2023-11-21T13:09:07;6.78;;;3.83;;
67162;SDS011;54092;53.088;8.850;2023-11-21T13:11:36;7.63;;;3.60;;
67162;SDS011;54092;53.088;8.850;2023-11-21T13:14:02;7.80;;;4.07;;
67162;SDS011;54092;53.088;8.850;2023-11-21T13:16:28;6.15;;;3.58;;
67162;SDS011;54092;53.088;8.850;2023-11-21T13:18:55;9.38;;;3.70;;
67162;SDS011;54092;53.088;8.850;2023-11-21T13:21:20;6.78;;;3.38;;
67162;SDS011;54092;53.088;8.850;2023-11-21T13:23:47;6.57;;;3.22;;
67162;SDS011;54092;53.088;8.850;2023-11-21T13:26:16;8.93;;;3.22;;
67162;SDS011;54092;53.088;8.850;2023-11-21T13:28:41;6.30;;;3.20;;
67162;SDS011;54092;53.088;8.850;2023-11-21T13:31:11;7.43;;;3.00;;
67162;SDS011;54092;53.088;8.850;2023-11-21T13:33:47;5.85;;;2.90;;
67162;SDS011;54092;53.088;8.850;2023-11-21T13:36:20;6.85;;;3.15;;
67162;SDS011;54092;53.088;8.850;2023-11-21T13:38:49;5.20;;;3.03;;
67162;SDS011;54092;53.088;8.850;2023-11-21T13:41:15;5.30;;;3.03;;
67162;SDS011;54092;53.088;8.850;2023-11-21T13:43:42;5.55;;;2.88;;
67162;SDS011;54092;53.088;8.850;2023-11-21T13:46:15;5.05;;;3.03;;
67162;SDS011;54092;53.088;8.850;2023-11-21T13:48:46;5.85;;;3.00;;
67162;SDS011;54092;53.088;8.850;2023-11-21T13:51:20;6.40;;;2.80;;
67162;SDS011;54092;53.088;8.850;2023-11-21T13:53:54;6.47;;;3.45;;
67162;SDS011;54092;53.088;8.850;2023-11-21T13:56:20;6.25;;;3.40;;
67162;SDS011;54092;53.088;8.850;2023-11-21T13:58:49;6.22;;;2.97;;
67162;SDS011;54092;53.088;8.850;2023-11-21T14:01:19;6.07;;;2.80;;
67162;SDS011;54092;53.088;8.850;2023-11-21T14:03:57;6.60;;;3.15;;
67162;SDS011;54092;53.088;8.850;2023-11-21T14:06:47;6.28;;;2.83;;
67162;SDS011;54092;53.088;8.850;2023-11-21T14:09:17;6.53;;;3.50;;
67162;SDS011;54092;53.088;8.850;2023-11-21T14:14:17;6.15;;;2.78;;
67162;SDS011;54092;53.088;8.850;2023-11-21T14:16:43;5.85;;;3.30;;
67162;SDS011;54092;53.088;8.850;2023-11-21T14:19:09;7.75;;;2.80;;
67162;SDS011;54092;53.088;8.850;2023-11-21T14:21:41;5.65;;;3.03;;
67162;SDS011;54092;53.088;8.850;2023-11-21T14:24:10;6.05;;;3.00;;
67162;SDS011;54092;53.088;8.850;2023-11-21T14:26:42;5.50;;;2.80;;
67162;SDS011;54092;53.088;8.850;2023-11-21T14:29:10;5.68;;;2.55;;
67162;SDS011;54092;53.088;8.850;2023-11-21T14:31:39;7.20;;;3.00;;
67162;SDS011;54092;53.088;8.850;2023-11-21T14:34:08;7.53;;;3.25;;
67162;SDS011;54092;53.088;8.850;2023-11-21T14:36:34;5.45;;;2.80;;
67162;SDS011;54092;53.088;8.850;2023-11-21T14:39:01;4.57;;;2.55;;
67162;SDS011;54092;53.088;8.850;2023-11-21T14:41:32;4.97;;;2.55;;
67162;SDS011;54092;53.088;8.850;2023-11-21T14:44:00;6.13;;;3.10;;
67162;SDS011;54092;53.088;8.850;2023-11-21T14:46:28;6.82;;;2.97;;
67162;SDS011;54092;53.088;8.850;2023-11-21T14:48:54;8.73;;;3.08;;
67162;SDS011;54092;53.088;8.850;2023-11-21T14:51:27;8.63;;;3.00;;
67162;SDS011;54092;53.088;8.850;2023-11-21T14:53:57;5.28;;;3.25;;